createdAt,value
2022-09-27T00:03:18.034Z,12.50
2022-09-27T00:05:50.542Z,12.50
2022-09-27T00:08:22.413Z,12.50
2022-09-27T00:11:03.296Z,12.50
2022-09-27T00:13:35.209Z,12.50
2022-09-27T00:16:08.029Z,12.50
2022-09-27T00:21:14.228Z,12.20
2022-09-27T00:23:46.430Z,12.00
2022-09-27T00:28:51.406Z,11.80
2022-09-27T00:31:29.354Z,11.90
2022-09-27T00:34:03.858Z,11.90
2022-09-27T00:36:36.078Z,12.00
2022-09-27T00:39:08.321Z,12.00
2022-09-27T00:41:40.569Z,11.90
2022-09-27T00:44:29.245Z,11.90
2022-09-27T00:47:29.798Z,12.00
2022-09-27T00:50:28.778Z,12.00
2022-09-27T00:53:17.141Z,12.10
2022-09-27T00:55:56.413Z,12.10
2022-09-27T00:58:37.173Z,12.00
2022-09-27T01:01:10.936Z,12.00
2022-09-27T01:04:01.430Z,11.90
2022-09-27T01:06:33.599Z,11.90
2022-09-27T01:09:09.351Z,11.80
2022-09-27T01:11:56.465Z,11.70
2022-09-27T01:15:17.263Z,11.60
2022-09-27T01:18:24.322Z,11.60
2022-09-27T01:21:34.522Z,11.50
2022-09-27T01:24:55.896Z,11.50
2022-09-27T01:28:20.429Z,11.40
2022-09-27T01:31:21.951Z,11.50
2022-09-27T01:34:07.725Z,11.40
2022-09-27T01:37:17.449Z,11.40
2022-09-27T01:40:10.484Z,11.40
2022-09-27T01:43:35.520Z,11.40
2022-09-27T01:46:31.864Z,11.40
2022-09-27T01:49:31.744Z,11.40
2022-09-27T01:52:08.242Z,11.30
2022-09-27T01:54:52.783Z,11.40
2022-09-27T01:57:44.195Z,11.40
2022-09-27T02:00:23.505Z,11.20
2022-09-27T02:03:01.915Z,11.20
2022-09-27T02:05:49.502Z,11.40
2022-09-27T02:11:42.717Z,11.30
2022-09-27T02:14:35.729Z,11.30
2022-09-27T02:17:30.452Z,11.30
2022-09-27T02:20:32.151Z,11.30
2022-09-27T02:23:26.719Z,11.30
2022-09-27T02:26:20.721Z,11.30
2022-09-27T02:29:19.163Z,11.30
2022-09-27T02:31:55.813Z,11.30
2022-09-27T02:34:31.894Z,11.30
2022-09-27T02:37:04.081Z,11.30
2022-09-27T02:39:37.148Z,11.30
2022-09-27T02:42:12.591Z,11.30
2022-09-27T02:44:48.037Z,11.30
2022-09-27T02:47:32.995Z,11.30
2022-09-27T02:50:39.760Z,11.20
2022-09-27T02:54:01.120Z,11.20
2022-09-27T02:57:03.839Z,11.10
2022-09-27T03:00:10.820Z,11.10
2022-09-27T03:03:15.908Z,11.10
2022-09-27T03:06:11.728Z,11.10
2022-09-27T03:08:44.661Z,11.10
2022-09-27T03:11:17.448Z,11.10
2022-09-27T03:14:07.879Z,11.20
2022-09-27T03:16:43.946Z,11.10
2022-09-27T03:19:38.595Z,11.10
2022-09-27T03:22:38.554Z,11.10
2022-09-27T03:25:11.781Z,11.10
2022-09-27T03:27:44.734Z,11.10
2022-09-27T03:32:50.213Z,11.00
2022-09-27T03:35:43.130Z,11.00
2022-09-27T03:38:15.896Z,11.00
2022-09-27T03:40:48.449Z,11.00
2022-09-27T03:43:20.926Z,11.00
2022-09-27T03:45:54.019Z,11.00
2022-09-27T03:48:28.237Z,11.00
2022-09-27T03:51:01.166Z,11.00
2022-09-27T03:53:34.201Z,11.00
2022-09-27T03:56:07.169Z,10.90
2022-09-27T03:58:39.405Z,10.90
2022-09-27T04:03:47.203Z,10.90
2022-09-27T04:06:20.131Z,10.90
2022-09-27T04:08:52.761Z,10.80
2022-09-27T04:16:33.144Z,10.80
2022-09-27T04:19:25.101Z,10.70
2022-09-27T04:22:15.875Z,10.70
2022-09-27T04:24:48.611Z,10.70
2022-09-27T04:27:31.543Z,10.70
2022-09-27T04:30:05.621Z,10.70
2022-09-27T04:33:13.250Z,10.70
2022-09-27T04:36:23.067Z,10.60
2022-09-27T04:39:13.178Z,10.50
2022-09-27T04:44:20.564Z,10.50
2022-09-27T04:46:56.494Z,10.50
2022-09-27T04:49:28.521Z,10.50
2022-09-27T04:54:34.085Z,10.50
2022-09-27T05:02:24.262Z,10.50
2022-09-27T05:05:16.531Z,10.50
2022-09-27T05:07:49.900Z,10.40
2022-09-27T05:13:06.560Z,10.60
2022-09-27T05:15:39.998Z,10.60
2022-09-27T05:18:30.907Z,10.60
2022-09-27T05:21:22.247Z,10.60
2022-09-27T05:23:54.343Z,10.60
2022-09-27T05:26:26.180Z,10.60
2022-09-27T05:28:58.968Z,10.60
2022-09-27T05:34:04.085Z,10.60
2022-09-27T05:39:14.051Z,10.60
2022-09-27T05:44:26.674Z,10.50
2022-09-27T05:47:04.316Z,10.50
2022-09-27T05:49:37.881Z,10.50
2022-09-27T05:52:13.609Z,10.50
2022-09-27T05:54:49.049Z,10.50
2022-09-27T05:59:56.689Z,10.50
2022-09-27T06:03:04.190Z,10.50
2022-09-27T06:05:55.638Z,10.40
2022-09-27T06:08:41.113Z,10.40
2022-09-27T06:11:17.694Z,10.40
2022-09-27T06:13:50.506Z,10.40
2022-09-27T06:16:23.315Z,10.40
2022-09-27T06:21:28.760Z,10.30
2022-09-27T06:24:03.660Z,10.30
2022-09-27T06:26:39.268Z,10.30
2022-09-27T06:29:20.755Z,10.30
2022-09-27T06:31:59.367Z,10.50
2022-09-27T06:34:53.742Z,10.50
2022-09-27T06:37:27.035Z,10.40
2022-09-27T06:39:59.829Z,10.40
2022-09-27T06:43:05.241Z,10.50
2022-09-27T06:46:06.142Z,10.50
2022-09-27T06:48:56.814Z,10.50
2022-09-27T06:54:02.906Z,10.50
2022-09-27T06:56:34.956Z,10.40
2022-09-27T07:02:19.304Z,10.50
2022-09-27T07:05:04.299Z,10.60
2022-09-27T07:07:59.369Z,10.70
2022-09-27T07:10:35.751Z,10.70
2022-09-27T07:13:11.582Z,10.70
2022-09-27T07:15:45.269Z,10.80
2022-09-27T07:18:22.602Z,10.80
2022-09-27T07:26:07.145Z,10.90
2022-09-27T07:28:41.937Z,10.90
2022-09-27T07:31:17.904Z,10.90
2022-09-27T07:33:53.097Z,10.80
2022-09-27T07:36:24.989Z,10.80
2022-09-27T07:39:00.404Z,10.80
2022-09-27T07:41:33.122Z,10.80
2022-09-27T07:46:41.358Z,10.90
2022-09-27T07:49:25.014Z,11.00
2022-09-27T07:52:20.383Z,10.90
2022-09-27T07:55:15.551Z,11.00
2022-09-27T08:00:50.206Z,10.90
2022-09-27T08:03:22.503Z,10.90
2022-09-27T08:08:28.915Z,11.00
2022-09-27T08:11:02.382Z,11.00
2022-09-27T08:19:01.613Z,10.90
2022-09-27T08:22:00.007Z,11.00
2022-09-27T08:27:20.180Z,11.00
2022-09-27T08:30:04.344Z,11.10
2022-09-27T08:32:38.479Z,11.10
2022-09-27T08:35:11.940Z,11.10
2022-09-27T08:40:24.206Z,11.10
2022-09-27T08:43:40.845Z,11.00
2022-09-27T08:46:51.403Z,10.90
2022-09-27T08:49:32.868Z,10.80
2022-09-27T08:52:16.220Z,10.80
2022-09-27T08:54:50.794Z,10.80
2022-09-27T08:57:25.380Z,10.80
2022-09-27T09:00:11.282Z,10.70
2022-09-27T09:05:35.077Z,10.70
2022-09-27T09:08:57.838Z,10.80
2022-09-27T09:12:18.548Z,10.80
2022-09-27T09:15:14.461Z,10.80
2022-09-27T09:17:55.826Z,10.90
2022-09-27T09:21:14.767Z,10.90
2022-09-27T09:24:15.819Z,10.90
2022-09-27T09:27:41.371Z,11.00
2022-09-27T09:30:25.067Z,11.30
2022-09-27T09:33:27.600Z,11.20
2022-09-27T09:36:13.916Z,11.20
2022-09-27T09:39:00.352Z,11.30
2022-09-27T09:41:47.072Z,11.50
2022-09-27T09:44:39.923Z,11.30
2022-09-27T09:47:37.918Z,11.30
2022-09-27T09:50:29.679Z,11.30
2022-09-27T09:53:17.914Z,11.20
2022-09-27T09:56:05.421Z,11.30
2022-09-27T09:58:53.509Z,11.40
2022-09-27T10:01:37.641Z,11.50
2022-09-27T10:04:27.868Z,11.70
2022-09-27T10:09:40.661Z,11.80
2022-09-27T10:15:20.955Z,11.70
2022-09-27T10:17:56.998Z,11.90
2022-09-27T10:20:43.495Z,12.00
2022-09-27T10:23:25.001Z,11.90
2022-09-27T10:26:14.194Z,11.80
2022-09-27T10:28:51.819Z,11.70
2022-09-27T10:34:40.938Z,11.70
2022-09-27T10:37:13.416Z,11.60
2022-09-27T10:39:58.296Z,11.60
2022-09-27T10:42:35.533Z,11.70
2022-09-27T10:45:31.280Z,11.70
2022-09-27T10:48:21.279Z,11.80
2022-09-27T10:51:00.618Z,11.80
2022-09-27T10:53:51.028Z,11.80
2022-09-27T10:56:35.016Z,11.70
2022-09-27T10:59:17.529Z,11.70
2022-09-27T11:01:50.701Z,11.70
2022-09-27T11:04:38.827Z,11.80
2022-09-27T11:07:20.658Z,11.90
2022-09-27T11:10:37.829Z,11.90
2022-09-27T11:13:14.429Z,11.70
2022-09-27T11:16:16.728Z,11.90
2022-09-27T11:19:19.330Z,12.00
2022-09-27T11:22:28.821Z,12.10
2022-09-27T11:25:32.104Z,12.20
2022-09-27T11:31:28.999Z,12.20
2022-09-27T11:34:29.054Z,12.20
2022-09-27T11:37:50.576Z,12.40
2022-09-27T11:40:58.079Z,12.30
2022-09-27T11:44:02.804Z,12.20
2022-09-27T11:46:56.170Z,12.10
2022-09-27T11:52:24.380Z,12.00
2022-09-27T11:55:20.837Z,12.00
2022-09-27T11:58:05.212Z,11.90
2022-09-27T12:04:17.662Z,12.30
2022-09-27T12:07:24.956Z,12.50
2022-09-27T12:10:04.805Z,13.10
2022-09-27T12:12:44.913Z,13.70
2022-09-27T12:15:25.769Z,14.10
2022-09-27T12:18:20.984Z,13.70
2022-09-27T12:20:54.545Z,13.80
2022-09-27T12:23:42.141Z,13.20
2022-09-27T12:26:43.356Z,13.10
2022-09-27T12:29:26.280Z,13.00
2022-09-27T12:32:53.288Z,13.00
2022-09-27T12:35:29.777Z,13.20
2022-09-27T12:38:21.236Z,13.20
2022-09-27T12:40:58.851Z,13.30
2022-09-27T12:43:48.953Z,13.30
2022-09-27T12:46:52.587Z,13.30
2022-09-27T12:50:04.806Z,13.30
2022-09-27T12:52:49.879Z,13.20
2022-09-27T12:55:54.268Z,12.60
2022-09-27T12:59:18.084Z,12.30
2022-09-27T13:01:58.331Z,11.80
2022-09-27T13:05:14.166Z,11.70
2022-09-27T13:08:35.376Z,11.60
2022-09-27T13:11:43.539Z,11.50
2022-09-27T13:14:22.137Z,11.50
2022-09-27T13:19:45.528Z,11.80
2022-09-27T13:22:41.121Z,13.20
2022-09-27T13:25:55.621Z,12.50
2022-09-27T13:29:02.013Z,12.60
2022-09-27T13:31:58.109Z,12.50
2022-09-27T13:35:20.094Z,12.40
2022-09-27T13:38:00.851Z,12.40
2022-09-27T13:40:41.994Z,12.40
2022-09-27T13:44:05.344Z,12.20
2022-09-27T13:46:58.205Z,12.20
2022-09-27T13:49:41.190Z,12.10
2022-09-27T13:52:27.729Z,14.80
2022-09-27T13:55:51.456Z,11.90
2022-09-27T13:58:52.732Z,11.80
2022-09-27T14:02:19.981Z,11.90
2022-09-27T14:04:53.434Z,11.70
2022-09-27T14:07:34.379Z,11.50
2022-09-27T14:10:14.854Z,11.40
2022-09-27T14:12:51.215Z,11.50
2022-09-27T14:15:29.829Z,11.60
2022-09-27T14:18:05.907Z,11.60
2022-09-27T14:23:53.014Z,11.80
2022-09-27T14:26:27.659Z,11.90
2022-09-27T14:34:19.042Z,12.00
2022-09-27T14:40:08.374Z,12.30
2022-09-27T14:45:27.125Z,12.20
2022-09-27T14:53:24.148Z,12.30
2022-09-27T14:55:58.148Z,12.20
2022-09-27T14:58:46.743Z,12.00
2022-09-27T15:01:20.736Z,12.00
2022-09-27T15:03:53.624Z,11.90
2022-09-27T15:06:26.382Z,11.90
2022-09-27T15:08:59.944Z,11.90
2022-09-27T15:11:35.018Z,11.80
2022-09-27T15:14:12.347Z,11.80
2022-09-27T15:16:48.983Z,11.90
2022-09-27T15:19:29.516Z,11.30
2022-09-27T15:22:24.707Z,12.10
2022-09-27T15:25:07.634Z,12.00
2022-09-27T15:30:29.624Z,12.20
2022-09-27T15:35:36.656Z,12.40
2022-09-27T15:38:32.150Z,12.30
2022-09-27T15:41:11.076Z,12.30
2022-09-27T15:43:52.767Z,12.40
2022-09-27T15:49:30.924Z,12.50
2022-09-27T15:52:05.168Z,12.50
2022-09-27T15:54:37.727Z,12.30
2022-09-27T15:57:12.383Z,10.80
2022-09-27T15:59:45.009Z,12.10
2022-09-27T16:02:19.560Z,12.10
2022-09-27T16:04:52.181Z,12.00
2022-09-27T16:07:24.291Z,12.00
2022-09-27T16:09:56.862Z,12.00
2022-09-27T16:12:31.155Z,11.90
2022-09-27T16:15:05.600Z,11.90
2022-09-27T16:17:38.508Z,11.90
2022-09-27T16:20:18.844Z,11.80
2022-09-27T16:22:52.405Z,11.80
2022-09-27T16:25:25.739Z,11.80
2022-09-27T16:28:00.387Z,11.80
2022-09-27T16:35:41.209Z,11.70
2022-09-27T16:38:13.513Z,11.70
2022-09-27T16:43:18.997Z,11.60
2022-09-27T16:45:50.946Z,11.70
2022-09-27T16:48:23.605Z,11.60
2022-09-27T16:53:52.106Z,11.60
2022-09-27T16:58:57.806Z,11.50
2022-09-27T17:01:34.222Z,11.60
2022-09-27T17:04:07.697Z,11.60
2022-09-27T17:06:40.743Z,11.50
2022-09-27T17:11:46.024Z,11.50
2022-09-27T17:14:18.635Z,11.50
2022-09-27T17:16:51.776Z,11.50
2022-09-27T17:19:23.944Z,11.40
2022-09-27T17:24:29.110Z,11.30
2022-09-27T17:27:02.637Z,11.40
2022-09-27T17:34:43.593Z,11.40
2022-09-27T17:37:16.314Z,11.30
2022-09-27T17:39:48.174Z,11.30
2022-09-27T17:42:21.619Z,11.30
2022-09-27T17:44:53.501Z,11.30
2022-09-27T17:50:30.041Z,11.30
2022-09-27T17:53:02.886Z,11.30
2022-09-27T17:55:35.928Z,11.30
2022-09-27T17:58:09.957Z,11.20
2022-09-27T18:00:42.274Z,11.30
2022-09-27T18:03:14.597Z,11.30
2022-09-27T18:05:46.888Z,11.30
2022-09-27T18:08:18.799Z,11.30
2022-09-27T18:15:59.590Z,11.30
2022-09-27T18:18:34.208Z,11.30
2022-09-27T18:21:16.108Z,11.30
2022-09-27T18:23:53.279Z,11.40
2022-09-27T18:26:29.352Z,11.40
2022-09-27T18:29:05.458Z,11.60
2022-09-27T18:31:39.979Z,11.60
2022-09-27T18:36:45.693Z,10.50
2022-09-27T18:39:19.549Z,11.60
2022-09-27T18:41:53.528Z,11.60
2022-09-27T18:44:25.474Z,11.60
2022-09-27T18:46:59.037Z,11.50
2022-09-27T18:49:34.060Z,11.60
2022-09-27T18:52:07.088Z,11.50
2022-09-27T18:59:49.185Z,11.60
2022-09-27T19:02:21.972Z,11.60
2022-09-27T19:04:54.278Z,11.60
2022-09-27T19:07:26.189Z,11.60
2022-09-27T19:09:59.368Z,11.60
2022-09-27T19:17:37.162Z,11.60
2022-09-27T19:22:44.206Z,11.50
2022-09-27T19:27:49.406Z,11.50
2022-09-27T19:30:21.256Z,11.50
2022-09-27T19:32:53.961Z,11.50
2022-09-27T19:35:26.062Z,11.50
2022-09-27T19:37:58.972Z,11.50
2022-09-27T19:40:32.211Z,11.50
2022-09-27T19:43:04.622Z,11.60
2022-09-27T19:45:37.846Z,11.60
2022-09-27T19:48:09.761Z,11.60
2022-09-27T19:50:42.526Z,11.60
2022-09-27T19:53:14.429Z,11.70
2022-09-27T19:58:19.952Z,11.70
2022-09-27T20:01:24.711Z,11.70
2022-09-27T20:03:58.324Z,11.70
2022-09-27T20:06:32.010Z,11.70
2022-09-27T20:11:37.186Z,11.70
2022-09-27T20:14:09.974Z,11.70
2022-09-27T20:16:41.891Z,11.70
2022-09-27T20:19:14.585Z,11.70
2022-09-27T20:24:20.811Z,11.70
2022-09-27T20:32:22.899Z,11.40
2022-09-27T20:34:52.246Z,11.30
2022-09-27T20:37:25.912Z,11.20
2022-09-27T20:39:58.795Z,11.10
2022-09-27T20:42:31.487Z,11.00
2022-09-27T20:45:04.066Z,11.00
2022-09-27T20:47:38.801Z,11.00
2022-09-27T20:50:11.134Z,11.00
2022-09-27T20:52:43.448Z,11.00
2022-09-27T20:57:57.565Z,10.90
2022-09-27T21:00:30.948Z,11.00
2022-09-27T21:03:03.088Z,11.10
2022-09-27T21:05:36.793Z,11.00
2022-09-27T21:10:41.368Z,11.20
2022-09-27T21:13:13.690Z,11.10
2022-09-27T21:15:45.577Z,11.20
2022-09-27T21:18:20.937Z,11.20
2022-09-27T21:21:01.338Z,11.20
2022-09-27T21:23:40.821Z,11.20
2022-09-27T21:26:19.303Z,11.30
2022-09-27T21:28:56.298Z,11.30
2022-09-27T21:31:31.943Z,11.30
2022-09-27T21:34:06.397Z,11.30
2022-09-27T21:36:39.381Z,11.30
2022-09-27T21:39:11.749Z,11.40
2022-09-27T21:44:16.925Z,11.40
2022-09-27T21:46:50.433Z,11.50
2022-09-27T21:49:23.268Z,11.50
2022-09-27T21:51:55.261Z,11.60
2022-09-27T21:54:27.990Z,11.60
2022-09-27T21:57:00.934Z,11.60
2022-09-27T21:59:33.676Z,11.70
2022-09-27T22:02:05.778Z,11.70
2022-09-27T22:04:38.630Z,11.80
2022-09-27T22:07:11.086Z,11.90
2022-09-27T22:09:43.754Z,11.90
2022-09-27T22:12:15.971Z,11.90
2022-09-27T22:14:47.939Z,11.90
2022-09-27T22:17:20.725Z,11.90
2022-09-27T22:19:52.624Z,12.00
2022-09-27T22:24:57.626Z,11.90
2022-09-27T22:27:30.319Z,11.80
2022-09-27T22:30:02.222Z,11.80
2022-09-27T22:32:35.150Z,11.90
2022-09-27T22:35:08.406Z,11.90
2022-09-27T22:37:40.646Z,11.90
2022-09-27T22:40:13.888Z,12.00
2022-09-27T22:42:45.954Z,11.90
2022-09-27T22:45:18.814Z,11.80
2022-09-27T22:47:51.471Z,11.90
2022-09-27T22:50:23.363Z,11.80
2022-09-27T22:52:56.250Z,11.80
2022-09-27T22:58:01.012Z,11.90
2022-09-27T23:05:39.376Z,11.90
2022-09-27T23:10:44.775Z,12.00
2022-09-27T23:13:16.606Z,12.00
2022-09-27T23:15:49.314Z,12.10
2022-09-27T23:18:21.208Z,12.20
2022-09-27T23:20:53.903Z,12.30
2022-09-27T23:23:26.007Z,12.20
2022-09-27T23:26:01.224Z,12.30
2022-09-27T23:28:33.785Z,12.30
2022-09-27T23:31:15.568Z,12.30
2022-09-27T23:33:49.007Z,12.30
2022-09-27T23:36:26.623Z,12.40
2022-09-27T23:39:01.799Z,12.40
2022-09-27T23:44:07.082Z,12.40
2022-09-27T23:46:39.805Z,12.50
2022-09-27T23:49:14.557Z,12.50
2022-09-27T23:51:46.861Z,12.40
2022-09-27T23:54:19.732Z,12.50
2022-09-27T23:59:25.653Z,12.50
